King Salmon Airport King Salmon US
ICAO: PAKN
IATA:
Category: Medium
Scheduled Services:

Elevation: 73 ft
TransAlt. 18000 ft.

Airport Communications:
HARMONY:140.1
ATIS:128.8
ANCHORAGE CNTR:124.8
CTAF:121.9
RDO:122.2
GND:121.9
OPS:37.22
PTD:37.22
TWR:118.3

PAKN Zoom In..

If you have problems with the map follow the link
https://www.worldairports.se/pages/airport.php?
ICAO=PAKN

Runways:

(A) RW 12 length 8901 ft width 150 ft
ILS 110.30 / hdg 116

(B) RW 18 length 4018 ft width 100 ft
---- / hdg 180

(C) RW 30 length 8901 ft width 150 ft
---- / hdg 296

(D) RW 36 length 4018 ft width 100 ft
---- / hdg 360

Location; PAKN
Day. 21 / Time. 17.54 Zulu
* Altimeter: 28.86
* Temperature: 09° c. 48.2°f.
* Wind from: 100° Speed 10 kn with Gusts up to 16 kn.
Dewpoint: 05° c.
Visibility: 10 Statute Miles.
Clouds: Overcast 5500 ft.
Conditions: Light Rain.

PAKN 211754Z 10010G16KT 10SM -RA OVC055 09/05 A2886 RMK AO2 SLP772 P0002 60002 T00890050 10106 20089 53023


Wind From 100°
Speed 10 kn.

 
 
jpsmedia.com for Web Design worldairports.se 2018   terms of use